createdAt,value
2019-02-26T00:01:50.493Z,5.54
2019-02-26T00:04:21.076Z,5.42
2019-02-26T00:06:51.821Z,5.47
2019-02-26T00:09:24.953Z,5.35
2019-02-26T00:11:54.758Z,5.64
2019-02-26T00:14:27.030Z,5.64
2019-02-26T00:16:56.541Z,5.40
2019-02-26T00:19:26.843Z,5.49
2019-02-26T00:21:57.017Z,5.38
2019-02-26T00:24:46.541Z,5.45
2019-02-26T00:27:16.742Z,5.53
2019-02-26T00:29:48.674Z,5.56
2019-02-26T00:32:18.599Z,5.63
2019-02-26T00:34:48.623Z,5.42
2019-02-26T00:37:20.069Z,5.64
2019-02-26T00:39:51.847Z,5.84
2019-02-26T00:42:24.268Z,5.69
2019-02-26T00:44:55.935Z,5.67
2019-02-26T00:47:25.555Z,5.61
2019-02-26T00:49:55.597Z,5.50
2019-02-26T00:52:25.577Z,5.55
2019-02-26T00:54:57.596Z,5.26
2019-02-26T00:57:29.193Z,5.43
2019-02-26T01:00:00.726Z,5.48
2019-02-26T01:02:30.757Z,5.53
2019-02-26T01:05:00.803Z,5.08
2019-02-26T01:07:30.895Z,5.38
2019-02-26T01:10:02.399Z,5.36
2019-02-26T01:12:33.080Z,5.33
2019-02-26T01:15:06.752Z,5.04
2019-02-26T01:17:38.363Z,5.03
2019-02-26T01:20:10.863Z,5.27
2019-02-26T01:22:42.835Z,5.27
2019-02-26T01:25:15.222Z,5.08
2019-02-26T01:27:47.802Z,5.04
2019-02-26T01:30:20.677Z,5.31
2019-02-26T01:32:48.523Z,5.10
2019-02-26T01:35:18.645Z,5.29
2019-02-26T01:37:49.347Z,5.19
2019-02-26T01:40:21.778Z,5.27
2019-02-26T01:42:55.155Z,5.30
2019-02-26T01:45:27.323Z,5.25
2019-02-26T01:47:56.184Z,5.28
2019-02-26T01:50:27.990Z,5.05
2019-02-26T01:52:59.156Z,5.07
2019-02-26T01:55:29.707Z,5.01
2019-02-26T01:57:59.763Z,4.99
2019-02-26T02:00:29.938Z,5.10
2019-02-26T02:03:00.019Z,4.70
2019-02-26T02:05:31.383Z,4.56
2019-02-26T02:08:01.907Z,4.67
2019-02-26T02:10:31.897Z,4.40
2019-02-26T02:13:02.847Z,4.45
2019-02-26T02:15:35.571Z,4.52
2019-02-26T02:18:06.201Z,4.64
2019-02-26T02:20:36.225Z,4.77
2019-02-26T02:23:07.090Z,4.68
2019-02-26T02:25:38.748Z,4.72
2019-02-26T02:28:08.929Z,4.42
2019-02-26T02:30:39.210Z,4.28
2019-02-26T02:33:09.260Z,4.56
2019-02-26T02:35:39.265Z,4.18
2019-02-26T02:38:09.328Z,4.53
2019-02-26T02:40:40.208Z,4.16
2019-02-26T02:43:13.204Z,4.61
2019-02-26T02:45:42.769Z,4.60
2019-02-26T02:48:14.183Z,4.29
2019-02-26T02:50:44.356Z,4.56
2019-02-26T02:53:14.465Z,4.24
2019-02-26T02:55:47.026Z,4.25
2019-02-26T02:58:18.332Z,4.19
2019-02-26T03:00:49.337Z,4.22
2019-02-26T03:03:21.433Z,4.17
2019-02-26T03:05:51.435Z,4.61
2019-02-26T03:08:22.362Z,4.25
2019-02-26T03:10:52.694Z,4.16
2019-02-26T03:13:24.889Z,4.32
2019-02-26T03:15:56.689Z,4.47
2019-02-26T03:18:26.164Z,4.51
2019-02-26T03:20:56.715Z,4.53
2019-02-26T03:23:27.892Z,4.25
2019-02-26T03:25:57.897Z,4.51
2019-02-26T03:28:27.995Z,4.50
2019-02-26T03:30:58.017Z,4.20
2019-02-26T03:33:28.082Z,4.46
2019-02-26T03:35:58.073Z,4.43
2019-02-26T03:38:28.884Z,4.41
2019-02-26T03:41:01.156Z,4.65
2019-02-26T03:43:31.434Z,4.68
2019-02-26T03:46:02.569Z,4.62
2019-02-26T03:48:32.572Z,4.61
2019-02-26T03:51:02.612Z,4.19
2019-02-26T03:53:34.286Z,4.52
2019-02-26T03:56:08.153Z,4.31
2019-02-26T03:58:36.274Z,4.44
2019-02-26T04:01:08.396Z,4.42
2019-02-26T04:03:39.518Z,4.44
2019-02-26T04:06:12.211Z,4.10
2019-02-26T04:08:42.767Z,4.23
2019-02-26T04:11:16.552Z,4.09
2019-02-26T04:13:45.881Z,4.00
2019-02-26T04:16:16.813Z,4.12
2019-02-26T04:18:51.033Z,3.98
2019-02-26T04:21:20.923Z,4.10
2019-02-26T04:23:51.406Z,4.08
2019-02-26T04:27:06.926Z,4.42
2019-02-26T04:29:55.776Z,4.05
2019-02-26T04:33:20.757Z,4.36
2019-02-26T04:36:23.811Z,4.48
2019-02-26T04:39:10.850Z,4.23
2019-02-26T04:41:53.958Z,4.43
2019-02-26T04:45:16.025Z,4.04
2019-02-26T04:47:48.656Z,4.17
2019-02-26T04:50:17.800Z,4.02
2019-02-26T04:52:47.881Z,4.04
2019-02-26T04:55:17.870Z,3.88
2019-02-26T04:57:50.602Z,3.90
2019-02-26T05:00:19.709Z,4.31
2019-02-26T05:02:49.810Z,3.91
2019-02-26T05:05:22.432Z,3.64
2019-02-26T05:07:51.723Z,3.58
2019-02-26T05:10:24.283Z,4.12
2019-02-26T05:12:57.134Z,4.02
2019-02-26T05:15:26.242Z,4.02
2019-02-26T05:17:56.887Z,4.19
2019-02-26T05:20:26.864Z,4.26
2019-02-26T05:23:00.046Z,4.29
2019-02-26T05:25:28.657Z,4.27
2019-02-26T05:27:58.789Z,3.92
2019-02-26T05:30:28.881Z,4.13
2019-02-26T05:33:00.818Z,4.18
2019-02-26T05:35:33.508Z,4.12
2019-02-26T05:38:06.825Z,4.02
2019-02-26T05:40:37.432Z,3.94
2019-02-26T05:43:07.107Z,3.90
2019-02-26T05:45:37.189Z,4.11
2019-02-26T05:48:07.250Z,3.98
2019-02-26T05:50:38.666Z,3.92
2019-02-26T05:53:11.267Z,4.03
2019-02-26T05:55:42.239Z,3.63
2019-02-26T05:58:15.651Z,3.76
2019-02-26T06:00:44.689Z,3.63
2019-02-26T06:03:16.280Z,3.72
2019-02-26T06:05:48.966Z,3.72
2019-02-26T06:08:18.225Z,3.87
2019-02-26T06:10:48.760Z,3.82
2019-02-26T06:13:18.834Z,3.67
2019-02-26T06:15:51.431Z,3.53
2019-02-26T06:18:21.034Z,3.53
2019-02-26T06:20:53.431Z,3.83
2019-02-26T06:23:23.195Z,3.83
2019-02-26T06:25:55.995Z,3.62
2019-02-26T06:28:26.361Z,3.75
2019-02-26T06:31:00.913Z,3.87
2019-02-26T06:33:34.118Z,3.69
2019-02-26T06:36:04.698Z,3.71
2019-02-26T06:38:35.049Z,3.87
2019-02-26T06:41:05.273Z,3.50
2019-02-26T06:43:37.551Z,3.50
2019-02-26T06:46:09.338Z,3.70
2019-02-26T06:48:38.830Z,3.51
2019-02-26T06:51:08.871Z,3.37
2019-02-26T06:53:38.908Z,3.45
2019-02-26T06:56:09.036Z,3.39
2019-02-26T06:58:41.123Z,3.33
2019-02-26T07:01:12.018Z,3.59
2019-02-26T07:03:42.485Z,3.77
2019-02-26T07:06:12.648Z,3.81
2019-02-26T07:08:44.496Z,3.75
2019-02-26T07:11:14.517Z,3.77
2019-02-26T07:13:46.411Z,3.83
2019-02-26T07:16:18.081Z,3.80
2019-02-26T07:18:47.973Z,3.77
2019-02-26T07:21:17.997Z,3.78
2019-02-26T07:23:48.011Z,3.77
2019-02-26T07:26:18.902Z,4.05
2019-02-26T07:28:51.070Z,4.03
2019-02-26T07:31:21.327Z,3.82
2019-02-26T07:33:53.212Z,3.88
2019-02-26T07:36:23.690Z,3.74
2019-02-26T07:38:56.534Z,3.93
2019-02-26T07:41:29.832Z,3.99
2019-02-26T07:43:59.971Z,4.05
2019-02-26T07:46:30.160Z,4.11
2019-02-26T07:49:02.633Z,4.08
2019-02-26T07:51:33.840Z,4.27
2019-02-26T07:54:03.737Z,4.24
2019-02-26T07:56:33.786Z,4.34
2019-02-26T07:59:06.741Z,4.35
2019-02-26T08:01:37.491Z,4.44
2019-02-26T08:04:09.351Z,4.51
2019-02-26T08:06:39.042Z,4.48
2019-02-26T08:09:12.158Z,4.58
2019-02-26T08:11:43.826Z,4.53
2019-02-26T08:14:15.779Z,4.52
2019-02-26T08:16:49.224Z,4.53
2019-02-26T08:19:17.143Z,4.59
2019-02-26T08:21:47.913Z,4.82
2019-02-26T08:24:20.334Z,4.78
2019-02-26T08:26:50.621Z,4.87
2019-02-26T08:29:20.630Z,5.02
2019-02-26T08:31:52.124Z,5.10
2019-02-26T08:34:22.410Z,5.18
2019-02-26T08:36:52.509Z,5.18
2019-02-26T08:39:22.517Z,5.36
2019-02-26T08:42:09.650Z,5.48
2019-02-26T08:44:39.664Z,5.55
2019-02-26T08:47:13.472Z,5.86
2019-02-26T08:49:43.450Z,5.93
2019-02-26T08:52:16.829Z,5.84
2019-02-26T08:54:45.009Z,6.03
2019-02-26T08:57:15.049Z,5.89
2019-02-26T08:59:47.162Z,6.16
2019-02-26T09:02:17.201Z,6.31
2019-02-26T09:04:47.799Z,6.53
2019-02-26T09:07:19.567Z,6.40
2019-02-26T09:09:50.690Z,6.57
2019-02-26T09:12:27.109Z,6.51
2019-02-26T09:14:56.986Z,6.73
2019-02-26T09:17:29.909Z,6.77
2019-02-26T09:20:08.423Z,6.81
2019-02-26T09:22:30.873Z,7.07
2019-02-26T09:25:02.201Z,6.94
2019-02-26T09:27:35.113Z,7.02
2019-02-26T09:30:05.829Z,7.08
2019-02-26T09:32:39.293Z,7.15
2019-02-26T09:35:10.135Z,7.28
2019-02-26T09:37:40.272Z,7.34
2019-02-26T09:40:12.000Z,7.57
2019-02-26T09:42:43.753Z,7.68
2019-02-26T09:45:17.733Z,7.91
2019-02-26T09:47:49.609Z,7.80
2019-02-26T09:50:20.738Z,7.75
2019-02-26T09:52:53.456Z,7.49
2019-02-26T09:55:22.952Z,7.86
2019-02-26T09:57:53.028Z,7.81
2019-02-26T10:00:27.217Z,7.93
2019-02-26T10:02:55.711Z,7.84
2019-02-26T10:05:25.804Z,8.01
2019-02-26T10:07:58.027Z,7.91
2019-02-26T10:10:30.829Z,7.89
2019-02-26T10:13:02.128Z,8.11
2019-02-26T10:15:32.347Z,8.05
2019-02-26T10:18:06.201Z,8.12
2019-02-26T10:20:35.062Z,8.24
2019-02-26T10:23:06.337Z,8.52
2019-02-26T10:25:38.599Z,8.43
2019-02-26T10:28:11.166Z,8.67
2019-02-26T10:30:41.710Z,8.68
2019-02-26T10:33:12.020Z,8.45
2019-02-26T10:35:45.065Z,8.78
2019-02-26T10:38:13.980Z,8.70
2019-02-26T10:40:53.476Z,8.64
2019-02-26T10:43:15.860Z,8.95
2019-02-26T10:45:47.449Z,8.83
2019-02-26T10:48:19.768Z,8.95
2019-02-26T10:50:51.759Z,9.08
2019-02-26T10:53:22.641Z,9.15
2019-02-26T10:55:52.840Z,9.51
2019-02-26T10:58:22.958Z,9.41
2019-02-26T11:00:55.586Z,9.68
2019-02-26T11:03:25.839Z,9.80
2019-02-26T11:05:55.885Z,9.55
2019-02-26T11:08:28.943Z,9.71
2019-02-26T11:10:57.772Z,9.94
2019-02-26T11:13:27.806Z,9.92
2019-02-26T11:15:59.911Z,10.07
2019-02-26T11:18:29.778Z,10.16
2019-02-26T11:20:59.798Z,10.08
2019-02-26T11:23:31.151Z,10.13
2019-02-26T11:26:01.645Z,10.12
2019-02-26T11:28:33.259Z,10.11
2019-02-26T11:31:03.527Z,10.21
2019-02-26T11:33:33.668Z,10.39
2019-02-26T11:36:05.539Z,9.94
2019-02-26T11:38:39.069Z,10.57
2019-02-26T11:41:07.347Z,10.80
2019-02-26T11:43:37.456Z,10.53
2019-02-26T11:46:08.743Z,10.21
2019-02-26T11:48:38.905Z,10.39
2019-02-26T11:51:08.919Z,10.18
2019-02-26T11:53:39.044Z,10.47
2019-02-26T11:56:09.170Z,10.63
2019-02-26T11:58:39.247Z,10.37
2019-02-26T12:01:12.120Z,10.37
2019-02-26T12:03:43.857Z,11.00
2019-02-26T12:06:14.136Z,10.62
2019-02-26T12:08:44.973Z,10.68
2019-02-26T12:11:17.812Z,10.99
2019-02-26T12:13:50.085Z,11.11
2019-02-26T12:16:19.701Z,10.97
2019-02-26T12:18:49.849Z,10.70
2019-02-26T12:21:19.944Z,10.92
2019-02-26T12:23:49.991Z,11.07
2019-02-26T12:26:22.186Z,11.16
2019-02-26T12:28:52.825Z,10.99
2019-02-26T12:31:25.310Z,10.97
2019-02-26T12:33:55.802Z,11.36
2019-02-26T12:36:26.630Z,10.99
2019-02-26T12:39:00.001Z,10.98
2019-02-26T12:41:29.529Z,11.18
2019-02-26T12:44:05.662Z,11.26
2019-02-26T12:46:33.935Z,11.42
2019-02-26T12:49:05.718Z,11.20
2019-02-26T12:51:35.875Z,10.90
2019-02-26T12:54:07.036Z,10.98
2019-02-26T12:56:37.805Z,11.22
2019-02-26T12:59:07.891Z,11.12
2019-02-26T13:01:39.758Z,11.20
2019-02-26T13:04:12.973Z,11.35
2019-02-26T13:06:45.260Z,11.22
2019-02-26T13:09:13.213Z,11.70
2019-02-26T13:12:00.457Z,11.68
2019-02-26T13:14:15.036Z,11.61
2019-02-26T13:16:46.289Z,11.82
2019-02-26T13:19:21.419Z,11.48
2019-02-26T13:21:48.673Z,11.80
2019-02-26T13:24:21.522Z,11.89
2019-02-26T13:26:51.675Z,11.89
2019-02-26T13:29:22.403Z,11.91
2019-02-26T13:34:24.289Z,11.78
2019-02-26T13:36:56.783Z,12.03
2019-02-26T13:39:29.849Z,12.10
2019-02-26T13:42:03.680Z,11.95
2019-02-26T13:44:29.879Z,12.07
2019-02-26T13:47:00.128Z,12.16
2019-02-26T13:49:30.229Z,12.25
2019-02-26T13:52:00.445Z,12.11
2019-02-26T13:54:30.541Z,12.03
2019-02-26T13:57:00.780Z,12.23
2019-02-26T13:59:30.925Z,12.54
2019-02-26T14:02:02.329Z,12.56
2019-02-26T14:04:32.444Z,12.40
2019-02-26T14:07:02.507Z,12.60
2019-02-26T14:09:32.633Z,12.55
2019-02-26T14:12:02.782Z,12.98
2019-02-26T14:14:33.055Z,12.97
2019-02-26T14:17:03.202Z,12.66
2019-02-26T14:19:33.284Z,12.73
2019-02-26T14:22:03.438Z,12.71
2019-02-26T14:24:33.522Z,12.75
2019-02-26T14:27:03.560Z,12.84
2019-02-26T14:29:33.611Z,12.73
2019-02-26T14:32:03.667Z,12.74
2019-02-26T14:34:33.702Z,12.87
2019-02-26T14:37:03.923Z,12.56
2019-02-26T14:39:34.010Z,12.74
2019-02-26T14:42:04.145Z,12.73
2019-02-26T14:44:34.231Z,12.87
2019-02-26T14:47:04.533Z,12.89
2019-02-26T14:49:34.653Z,12.85
2019-02-26T14:52:04.685Z,12.83
2019-02-26T14:54:34.712Z,12.73
2019-02-26T14:57:04.783Z,12.73
2019-02-26T14:59:34.890Z,12.65
2019-02-26T15:02:05.029Z,12.73
2019-02-26T15:04:35.133Z,12.94
2019-02-26T15:07:05.203Z,12.62
2019-02-26T15:09:35.326Z,12.91
2019-02-26T15:12:05.429Z,12.91
2019-02-26T15:14:35.540Z,12.91
2019-02-26T15:17:06.293Z,12.86
2019-02-26T15:19:36.417Z,12.90
2019-02-26T15:22:06.433Z,12.90
2019-02-26T15:24:36.554Z,13.05
2019-02-26T15:27:06.672Z,12.97
2019-02-26T15:29:36.807Z,12.99
2019-02-26T15:32:07.014Z,12.91
2019-02-26T15:34:37.142Z,12.91
2019-02-26T15:37:07.252Z,12.96
2019-02-26T15:39:37.322Z,13.01
2019-02-26T15:42:07.418Z,13.17
2019-02-26T15:44:37.533Z,13.01
2019-02-26T15:47:09.212Z,13.02
2019-02-26T15:49:39.490Z,13.17
2019-02-26T15:52:09.513Z,13.17
2019-02-26T15:54:39.571Z,12.85
2019-02-26T15:57:09.593Z,12.92
2019-02-26T15:59:39.641Z,12.76
2019-02-26T16:02:09.656Z,13.06
2019-02-26T16:04:39.830Z,13.06
2019-02-26T16:07:09.929Z,13.18
2019-02-26T16:09:40.010Z,13.04
2019-02-26T16:12:10.052Z,12.89
2019-02-26T16:14:40.110Z,12.89
2019-02-26T16:17:10.321Z,12.64
2019-02-26T16:19:40.350Z,12.77
2019-02-26T16:22:10.381Z,12.51
2019-02-26T16:24:40.618Z,12.74
2019-02-26T16:27:10.672Z,12.71
2019-02-26T16:29:40.739Z,12.67
2019-02-26T16:32:10.821Z,12.66
2019-02-26T16:34:40.869Z,12.49
2019-02-26T16:37:11.001Z,12.38
2019-02-26T16:39:41.111Z,12.26
2019-02-26T16:42:11.764Z,12.22
2019-02-26T16:44:42.395Z,12.20
2019-02-26T16:47:12.617Z,11.99
2019-02-26T16:49:44.203Z,11.95
2019-02-26T16:52:14.265Z,11.98
2019-02-26T16:54:44.395Z,12.06
2019-02-26T16:57:14.479Z,12.07
2019-02-26T16:59:44.547Z,12.04
2019-02-26T17:02:15.483Z,11.95
2019-02-26T17:04:45.497Z,11.90
2019-02-26T17:07:15.629Z,11.71
2019-02-26T17:09:45.688Z,11.57
2019-02-26T17:12:15.863Z,11.60
2019-02-26T17:14:46.083Z,11.47
2019-02-26T17:17:16.191Z,11.68
2019-02-26T17:19:48.368Z,11.60
2019-02-26T17:22:20.321Z,11.59
2019-02-26T17:24:53.395Z,11.59
2019-02-26T17:27:22.273Z,11.54
2019-02-26T17:29:52.466Z,11.51
2019-02-26T17:32:22.785Z,11.56
2019-02-26T17:34:53.802Z,11.29
2019-02-26T17:37:24.615Z,11.22
2019-02-26T17:39:54.703Z,11.21
2019-02-26T17:42:24.849Z,11.27
2019-02-26T17:44:55.084Z,11.22
2019-02-26T17:47:25.469Z,11.20
2019-02-26T17:49:55.644Z,11.21
2019-02-26T17:52:25.873Z,11.04
2019-02-26T17:54:55.941Z,11.10
2019-02-26T17:57:26.181Z,11.13
2019-02-26T17:59:56.307Z,11.11
2019-02-26T18:02:27.498Z,11.09
2019-02-26T18:04:58.508Z,10.96
2019-02-26T18:07:30.037Z,10.87
2019-02-26T18:10:00.217Z,10.77
2019-02-26T18:12:30.375Z,10.77
2019-02-26T18:15:00.552Z,10.81
2019-02-26T18:17:30.655Z,10.87
2019-02-26T18:20:00.812Z,10.80
2019-02-26T18:22:30.888Z,10.66
2019-02-26T18:25:01.742Z,10.70
2019-02-26T18:27:31.821Z,10.70
2019-02-26T18:30:02.329Z,10.72
2019-02-26T18:32:32.399Z,10.59
2019-02-26T18:35:02.501Z,10.42
2019-02-26T18:37:33.001Z,10.43
2019-02-26T18:40:03.215Z,10.25
2019-02-26T18:42:33.267Z,10.27
2019-02-26T18:45:03.383Z,10.20
2019-02-26T18:47:33.480Z,10.16
2019-02-26T18:50:03.554Z,10.06
2019-02-26T18:52:33.595Z,9.93
2019-02-26T18:55:03.784Z,9.90
2019-02-26T18:57:33.894Z,9.94
2019-02-26T19:00:05.636Z,9.75
2019-02-26T19:02:36.000Z,9.70
2019-02-26T19:05:06.959Z,9.66
2019-02-26T19:07:37.188Z,9.61
2019-02-26T19:10:09.201Z,9.63
2019-02-26T19:12:39.309Z,9.61
2019-02-26T19:15:12.576Z,9.66
2019-02-26T19:17:44.553Z,9.56
2019-02-26T19:20:15.565Z,9.51
2019-02-26T19:22:45.776Z,9.50
2019-02-26T19:25:15.842Z,9.34
2019-02-26T19:27:45.940Z,9.34
2019-02-26T19:30:17.203Z,9.42
2019-02-26T19:32:47.786Z,9.24
2019-02-26T19:35:18.415Z,9.28
2019-02-26T19:37:49.978Z,9.34
2019-02-26T19:40:21.740Z,8.98
2019-02-26T19:42:52.917Z,8.91
2019-02-26T19:45:26.465Z,8.83
2019-02-26T19:47:56.601Z,8.88
2019-02-26T19:50:26.713Z,8.84
2019-02-26T19:52:57.459Z,8.66
2019-02-26T19:55:31.128Z,8.72
2019-02-26T19:58:03.979Z,8.57
2019-02-26T20:00:33.014Z,8.56
2019-02-26T20:03:05.511Z,8.56
2019-02-26T20:05:34.828Z,8.61
2019-02-26T20:08:06.100Z,8.34
2019-02-26T20:10:36.234Z,8.19
2019-02-26T20:13:12.321Z,8.17
2019-02-26T20:15:38.011Z,8.17
2019-02-26T20:18:08.070Z,8.21
2019-02-26T20:20:40.946Z,8.07
2019-02-26T20:23:09.863Z,8.03
2019-02-26T20:25:42.465Z,7.92
2019-02-26T20:28:11.682Z,7.96
2019-02-26T20:30:41.717Z,8.00
2019-02-26T20:33:11.795Z,7.99
2019-02-26T20:35:45.116Z,8.04
2019-02-26T20:38:13.587Z,7.93
2019-02-26T20:40:43.625Z,8.05
2019-02-26T20:43:13.743Z,7.85
2019-02-26T20:45:43.779Z,7.72
2019-02-26T20:48:14.252Z,7.98
2019-02-26T20:50:44.297Z,7.88
2019-02-26T20:53:14.386Z,7.51
2019-02-26T20:55:52.217Z,7.58
2019-02-26T20:58:16.238Z,7.50
2019-02-26T21:00:48.227Z,7.57
2019-02-26T21:03:18.094Z,7.60
2019-02-26T21:05:48.198Z,7.34
2019-02-26T21:08:18.305Z,7.32
2019-02-26T21:10:48.731Z,7.38
2019-02-26T21:13:18.904Z,7.31
2019-02-26T21:15:48.924Z,7.39
2019-02-26T21:18:18.986Z,7.66
2019-02-26T21:20:49.348Z,7.63
2019-02-26T21:23:19.536Z,7.55
2019-02-26T21:25:49.518Z,7.63
2019-02-26T21:28:19.548Z,7.54
2019-02-26T21:30:49.675Z,7.45
2019-02-26T21:33:19.857Z,7.59
2019-02-26T21:35:51.925Z,7.55
2019-02-26T21:38:21.740Z,7.28
2019-02-26T21:40:52.134Z,7.11
2019-02-26T21:43:22.387Z,7.12
2019-02-26T21:45:52.445Z,6.94
2019-02-26T21:48:22.550Z,7.04
2019-02-26T21:50:54.513Z,6.87
2019-02-26T21:53:24.343Z,6.88
2019-02-26T21:55:55.644Z,6.70
2019-02-26T21:58:26.817Z,6.65
2019-02-26T22:00:57.431Z,6.58
2019-02-26T22:03:27.451Z,6.64
2019-02-26T22:06:05.072Z,6.27
2019-02-26T22:08:29.267Z,6.09
2019-02-26T22:10:59.402Z,6.23
2019-02-26T22:13:29.885Z,6.44
2019-02-26T22:16:00.062Z,5.98
2019-02-26T22:18:34.064Z,6.13
2019-02-26T22:21:02.314Z,5.90
2019-02-26T22:23:34.306Z,6.06
2019-02-26T22:26:04.141Z,5.98
2019-02-26T22:28:34.226Z,6.14
2019-02-26T22:31:04.239Z,6.02
2019-02-26T22:33:34.334Z,5.81
2019-02-26T22:36:04.390Z,5.75
2019-02-26T22:38:34.415Z,5.93
2019-02-26T22:41:04.854Z,6.13
2019-02-26T22:43:34.972Z,6.11
2019-02-26T22:46:05.092Z,5.89
2019-02-26T22:48:35.166Z,6.09
2019-02-26T22:51:05.269Z,6.18
2019-02-26T22:53:36.655Z,5.70
2019-02-26T22:56:07.274Z,5.78
2019-02-26T22:58:37.480Z,5.98
2019-02-26T23:01:30.513Z,5.90
2019-02-26T23:03:59.622Z,5.70
2019-02-26T23:06:31.701Z,5.77
2019-02-26T23:09:01.878Z,5.57
2019-02-26T23:11:32.682Z,5.53
2019-02-26T23:14:04.972Z,5.60
2019-02-26T23:16:35.892Z,5.49
2019-02-26T23:19:05.961Z,5.61
2019-02-26T23:21:36.927Z,5.55
2019-02-26T23:24:07.390Z,5.45
2019-02-26T23:26:41.889Z,5.25
2019-02-26T23:29:09.701Z,5.31
2019-02-26T23:31:39.783Z,5.31
2019-02-26T23:34:09.895Z,5.28
2019-02-26T23:36:39.993Z,5.17
2019-02-26T23:39:13.589Z,5.39
2019-02-26T23:41:44.986Z,5.43
2019-02-26T23:44:17.829Z,5.11
2019-02-26T23:46:47.277Z,5.29
2019-02-26T23:49:17.361Z,5.25
2019-02-26T23:51:47.841Z,5.36
2019-02-26T23:54:17.925Z,5.31
2019-02-26T23:56:49.839Z,5.24
2019-02-26T23:59:19.765Z,5.22
